sensor_id;sensor_type;location;lat;lon;timestamp;pressure;altitude;pressure_sealevel;temperature;humidity
28683;BME280;15862;43.062;25.626;2022-11-15T00:01:25;100877.81;;;10.21;100.00
28683;BME280;15862;43.062;25.626;2022-11-15T00:03:51;100867.97;;;10.12;100.00
28683;BME280;15862;43.062;25.626;2022-11-15T00:06:16;100851.38;;;10.02;100.00
28683;BME280;15862;43.062;25.626;2022-11-15T00:08:42;100875.22;;;10.21;100.00
28683;BME280;15862;43.062;25.626;2022-11-15T00:11:10;100872.81;;;10.18;100.00
28683;BME280;15862;43.062;25.626;2022-11-15T00:13:36;100871.16;;;10.17;100.00
28683;BME280;15862;43.062;25.626;2022-11-15T00:16:02;100870.47;;;10.14;100.00
28683;BME280;15862;43.062;25.626;2022-11-15T00:18:28;100866.91;;;10.16;100.00
28683;BME280;15862;43.062;25.626;2022-11-15T00:20:54;100866.31;;;10.11;100.00
28683;BME280;15862;43.062;25.626;2022-11-15T00:23:20;100854.50;;;10.07;100.00
28683;BME280;15862;43.062;25.626;2022-11-15T00:25:45;100868.47;;;10.19;100.00
28683;BME280;15862;43.062;25.626;2022-11-15T00:28:11;100864.50;;;10.13;100.00
28683;BME280;15862;43.062;25.626;2022-11-15T00:30:36;100862.25;;;10.07;100.00
28683;BME280;15862;43.062;25.626;2022-11-15T00:33:03;100866.66;;;10.05;100.00
28683;BME280;15862;43.062;25.626;2022-11-15T00:35:31;100859.84;;;10.04;100.00
28683;BME280;15862;43.062;25.626;2022-11-15T00:37:57;100839.53;;;9.98;100.00
28683;BME280;15862;43.062;25.626;2022-11-15T00:40:23;100855.03;;;9.98;100.00
28683;BME280;15862;43.062;25.626;2022-11-15T00:42:48;100854.94;;;10.00;100.00
28683;BME280;15862;43.062;25.626;2022-11-15T00:45:14;100840.00;;;9.89;100.00
28683;BME280;15862;43.062;25.626;2022-11-15T00:47:39;100845.59;;;9.82;100.00
28683;BME280;15862;43.062;25.626;2022-11-15T00:50:05;100855.50;;;9.89;100.00
28683;BME280;15862;43.062;25.626;2022-11-15T00:52:30;100853.66;;;9.91;100.00
28683;BME280;15862;43.062;25.626;2022-11-15T00:54:56;100842.69;;;9.88;100.00
28683;BME280;15862;43.062;25.626;2022-11-15T00:57:21;100843.03;;;9.97;100.00
28683;BME280;15862;43.062;25.626;2022-11-15T00:59:46;100858.16;;;10.03;100.00
28683;BME280;15862;43.062;25.626;2022-11-15T01:02:12;100833.03;;;9.91;100.00
28683;BME280;15862;43.062;25.626;2022-11-15T01:04:37;100854.50;;;10.07;100.00
28683;BME280;15862;43.062;25.626;2022-11-15T01:07:03;100842.63;;;10.05;100.00
28683;BME280;15862;43.062;25.626;2022-11-15T01:09:28;100839.28;;;10.03;100.00
28683;BME280;15862;43.062;25.626;2022-11-15T01:11:54;100830.72;;;10.02;100.00
28683;BME280;15862;43.062;25.626;2022-11-15T01:14:19;100840.50;;;10.11;100.00
28683;BME280;15862;43.062;25.626;2022-11-15T01:16:44;100828.31;;;9.99;100.00
28683;BME280;15862;43.062;25.626;2022-11-15T01:19:10;100843.03;;;10.13;100.00
28683;BME280;15862;43.062;25.626;2022-11-15T01:21:35;100848.84;;;10.16;100.00
28683;BME280;15862;43.062;25.626;2022-11-15T01:24:01;100833.25;;;10.18;100.00
28683;BME280;15862;43.062;25.626;2022-11-15T01:26:26;100831.59;;;10.17;100.00
28683;BME280;15862;43.062;25.626;2022-11-15T01:28:52;100827.19;;;10.19;100.00
28683;BME280;15862;43.062;25.626;2022-11-15T01:31:19;100831.69;;;10.15;100.00
28683;BME280;15862;43.062;25.626;2022-11-15T01:33:46;100836.66;;;10.18;100.00
28683;BME280;15862;43.062;25.626;2022-11-15T01:36:21;100837.50;;;10.19;100.00
28683;BME280;15862;43.062;25.626;2022-11-15T01:38:53;100827.19;;;10.19;100.00
28683;BME280;15862;43.062;25.626;2022-11-15T01:41:21;100832.50;;;10.16;100.00
28683;BME280;15862;43.062;25.626;2022-11-15T01:43:51;100823.09;;;10.15;100.00
28683;BME280;15862;43.062;25.626;2022-11-15T01:48:53;100827.34;;;10.16;100.00
28683;BME280;15862;43.062;25.626;2022-11-15T01:51:24;100828.19;;;10.16;100.00
28683;BME280;15862;43.062;25.626;2022-11-15T01:53:54;100826.16;;;10.21;100.00
28683;BME280;15862;43.062;25.626;2022-11-15T01:56:23;100823.03;;;10.16;100.00
28683;BME280;15862;43.062;25.626;2022-11-15T01:58:51;100825.16;;;10.24;100.00
28683;BME280;15862;43.062;25.626;2022-11-15T02:01:18;100815.84;;;10.21;100.00
28683;BME280;15862;43.062;25.626;2022-11-15T02:03:52;100822.94;;;10.18;100.00
28683;BME280;15862;43.062;25.626;2022-11-15T02:06:21;100807.78;;;10.12;100.00
28683;BME280;15862;43.062;25.626;2022-11-15T02:08:47;100817.25;;;10.11;100.00
28683;BME280;15862;43.062;25.626;2022-11-15T02:11:12;100809.72;;;10.08;100.00
28683;BME280;15862;43.062;25.626;2022-11-15T02:13:39;100824.84;;;10.14;100.00
28683;BME280;15862;43.062;25.626;2022-11-15T02:16:49;100820.84;;;10.09;100.00
28683;BME280;15862;43.062;25.626;2022-11-15T02:19:44;100813.00;;;10.10;100.00
28683;BME280;15862;43.062;25.626;2022-11-15T02:27:28;100798.41;;;9.95;100.00
28683;BME280;15862;43.062;25.626;2022-11-15T02:33:01;100809.41;;;9.99;100.00
28683;BME280;15862;43.062;25.626;2022-11-15T02:35:37;100803.03;;;10.04;100.00
28683;BME280;15862;43.062;25.626;2022-11-15T02:41:00;100818.72;;;10.01;100.00
28683;BME280;15862;43.062;25.626;2022-11-15T02:43:59;100802.69;;;10.10;100.00
28683;BME280;15862;43.062;25.626;2022-11-15T02:49:34;100797.19;;;10.16;100.00
28683;BME280;15862;43.062;25.626;2022-11-15T02:52:00;100793.78;;;10.16;100.00
28683;BME280;15862;43.062;25.626;2022-11-15T02:54:30;100791.84;;;10.19;100.00
28683;BME280;15862;43.062;25.626;2022-11-15T02:57:07;100784.09;;;10.19;100.00
28683;BME280;15862;43.062;25.626;2022-11-15T03:05:25;100766.00;;;10.05;100.00
28683;BME280;15862;43.062;25.626;2022-11-15T03:16:25;100779.28;;;10.13;100.00
28683;BME280;15862;43.062;25.626;2022-11-15T03:19:35;100782.63;;;10.15;100.00
28683;BME280;15862;43.062;25.626;2022-11-15T03:22:07;100764.31;;;10.04;100.00
28683;BME280;15862;43.062;25.626;2022-11-15T03:24:36;100776.56;;;10.16;100.00
28683;BME280;15862;43.062;25.626;2022-11-15T03:27:05;100776.44;;;10.18;100.00
28683;BME280;15862;43.062;25.626;2022-11-15T03:29:40;100772.09;;;10.18;100.00
28683;BME280;15862;43.062;25.626;2022-11-15T03:32:12;100772.69;;;10.23;100.00
28683;BME280;15862;43.062;25.626;2022-11-15T03:37:07;100768.34;;;10.24;100.00
28683;BME280;15862;43.062;25.626;2022-11-15T03:39:33;100776.00;;;10.25;100.00
28683;BME280;15862;43.062;25.626;2022-11-15T03:42:31;100750.72;;;10.16;100.00
28683;BME280;15862;43.062;25.626;2022-11-15T03:45:16;100765.84;;;10.22;100.00
28683;BME280;15862;43.062;25.626;2022-11-15T03:47:49;100759.78;;;10.23;100.00
28683;BME280;15862;43.062;25.626;2022-11-15T03:50:21;100759.03;;;10.21;100.00
28683;BME280;15862;43.062;25.626;2022-11-15T03:52:49;100764.03;;;10.24;100.00
28683;BME280;15862;43.062;25.626;2022-11-15T03:55:19;100751.19;;;10.23;100.00
28683;BME280;15862;43.062;25.626;2022-11-15T03:57:50;100750.28;;;10.24;100.00
28683;BME280;15862;43.062;25.626;2022-11-15T04:00:16;100750.16;;;10.25;100.00
28683;BME280;15862;43.062;25.626;2022-11-15T04:02:42;100743.81;;;10.17;100.00
28683;BME280;15862;43.062;25.626;2022-11-15T04:05:07;100751.03;;;10.26;100.00
28683;BME280;15862;43.062;25.626;2022-11-15T04:07:33;100742.63;;;10.22;100.00
28683;BME280;15862;43.062;25.626;2022-11-15T04:09:58;100740.69;;;10.26;100.00
28683;BME280;15862;43.062;25.626;2022-11-15T04:12:35;100747.03;;;10.20;100.00
28683;BME280;15862;43.062;25.626;2022-11-15T04:15:07;100744.56;;;10.19;100.00
28683;BME280;15862;43.062;25.626;2022-11-15T04:20:31;100738.91;;;10.12;100.00
28683;BME280;15862;43.062;25.626;2022-11-15T04:23:19;100744.81;;;10.14;100.00
28683;BME280;15862;43.062;25.626;2022-11-15T04:26:07;100740.56;;;10.13;100.00
28683;BME280;15862;43.062;25.626;2022-11-15T04:28:33;100742.34;;;10.13;100.00
28683;BME280;15862;43.062;25.626;2022-11-15T04:30:59;100746.38;;;10.17;100.00
28683;BME280;15862;43.062;25.626;2022-11-15T04:33:25;100736.81;;;10.19;100.00
28683;BME280;15862;43.062;25.626;2022-11-15T04:35:50;100740.22;;;10.19;100.00
28683;BME280;15862;43.062;25.626;2022-11-15T04:38:35;100737.81;;;10.16;100.00
28683;BME280;15862;43.062;25.626;2022-11-15T04:41:01;100728.78;;;10.09;100.00
28683;BME280;15862;43.062;25.626;2022-11-15T04:43:27;100731.75;;;10.17;100.00
28683;BME280;15862;43.062;25.626;2022-11-15T04:45:53;100735.25;;;10.16;100.00
28683;BME280;15862;43.062;25.626;2022-11-15T04:48:18;100717.16;;;10.02;100.00
28683;BME280;15862;43.062;25.626;2022-11-15T04:50:44;100724.25;;;10.13;100.00
28683;BME280;15862;43.062;25.626;2022-11-15T04:53:09;100731.75;;;10.17;100.00
28683;BME280;15862;43.062;25.626;2022-11-15T04:55:35;100728.31;;;10.17;100.00
28683;BME280;15862;43.062;25.626;2022-11-15T04:58:01;100724.72;;;10.19;100.00
28683;BME280;15862;43.062;25.626;2022-11-15T05:00:28;100722.06;;;10.21;100.00
28683;BME280;15862;43.062;25.626;2022-11-15T05:02:54;100708.56;;;10.16;100.00
28683;BME280;15862;43.062;25.626;2022-11-15T05:05:39;100724.19;;;10.28;100.00
28683;BME280;15862;43.062;25.626;2022-11-15T05:08:04;100706.25;;;10.11;100.00
28683;BME280;15862;43.062;25.626;2022-11-15T05:10:30;100724.91;;;10.16;100.00
28683;BME280;15862;43.062;25.626;2022-11-15T05:12:56;100719.53;;;10.05;100.00
28683;BME280;15862;43.062;25.626;2022-11-15T05:15:21;100721.28;;;10.05;100.00
28683;BME280;15862;43.062;25.626;2022-11-15T05:17:46;100731.34;;;10.09;100.00
28683;BME280;15862;43.062;25.626;2022-11-15T05:20:12;100728.19;;;10.04;100.00
28683;BME280;15862;43.062;25.626;2022-11-15T05:22:38;100722.13;;;10.05;100.00
28683;BME280;15862;43.062;25.626;2022-11-15T05:25:05;100722.97;;;10.06;100.00
28683;BME280;15862;43.062;25.626;2022-11-15T05:27:30;100723.78;;;10.06;100.00
28683;BME280;15862;43.062;25.626;2022-11-15T05:29:56;100720.63;;;10.01;100.00
28683;BME280;15862;43.062;25.626;2022-11-15T05:32:21;100729.69;;;10.08;100.00
28683;BME280;15862;43.062;25.626;2022-11-15T05:34:47;100716.78;;;10.08;100.00
28683;BME280;15862;43.062;25.626;2022-11-15T05:37:13;100725.81;;;10.01;100.00
28683;BME280;15862;43.062;25.626;2022-11-15T05:39:39;100718.22;;;9.98;100.00
28683;BME280;15862;43.062;25.626;2022-11-15T05:42:10;100723.94;;;10.03;100.00
28683;BME280;15862;43.062;25.626;2022-11-15T05:44:37;100721.66;;;9.99;100.00
28683;BME280;15862;43.062;25.626;2022-11-15T05:47:07;100709.97;;;9.92;100.00
28683;BME280;15862;43.062;25.626;2022-11-15T05:49:35;100723.22;;;10.01;100.00
28683;BME280;15862;43.062;25.626;2022-11-15T05:52:05;100723.22;;;10.01;100.00
28683;BME280;15862;43.062;25.626;2022-11-15T05:54:31;100727.09;;;10.08;100.00
28683;BME280;15862;43.062;25.626;2022-11-15T05:56:57;100724.59;;;10.07;100.00
28683;BME280;15862;43.062;25.626;2022-11-15T05:59:24;100715.72;;;9.97;100.00
28683;BME280;15862;43.062;25.626;2022-11-15T06:01:49;100716.50;;;9.99;100.00
28683;BME280;15862;43.062;25.626;2022-11-15T06:04:14;100715.06;;;9.93;100.00
28683;BME280;15862;43.062;25.626;2022-11-15T06:06:40;100720.97;;;9.95;100.00
28683;BME280;15862;43.062;25.626;2022-11-15T06:09:05;100724.13;;;10.00;100.00
28683;BME280;15862;43.062;25.626;2022-11-15T06:11:31;100729.47;;;9.97;100.00
28683;BME280;15862;43.062;25.626;2022-11-15T06:13:56;100734.63;;;9.97;100.00
28683;BME280;15862;43.062;25.626;2022-11-15T06:16:21;100731.41;;;10.08;100.00
28683;BME280;15862;43.062;25.626;2022-11-15T06:18:47;100743.25;;;10.12;100.00
28683;BME280;15862;43.062;25.626;2022-11-15T06:21:12;100741.22;;;10.17;100.00
28683;BME280;15862;43.062;25.626;2022-11-15T06:23:38;100733.03;;;10.24;100.00
28683;BME280;15862;43.062;25.626;2022-11-15T06:26:03;100724.81;;;10.18;100.00
28683;BME280;15862;43.062;25.626;2022-11-15T06:28:32;100729.72;;;10.22;100.00
28683;BME280;15862;43.062;25.626;2022-11-15T06:31:05;100714.97;;;10.24;100.00
28683;BME280;15862;43.062;25.626;2022-11-15T06:33:30;100729.06;;;10.33;100.00
28683;BME280;15862;43.062;25.626;2022-11-15T06:36:00;100733.06;;;10.38;100.00
28683;BME280;15862;43.062;25.626;2022-11-15T06:38:26;100743.13;;;10.43;100.00
28683;BME280;15862;43.062;25.626;2022-11-15T06:40:51;100737.84;;;10.58;100.00
28683;BME280;15862;43.062;25.626;2022-11-15T06:43:17;100736.03;;;10.60;100.00
28683;BME280;15862;43.062;25.626;2022-11-15T06:45:42;100727.53;;;10.58;100.00
28683;BME280;15862;43.062;25.626;2022-11-15T06:48:07;100732.84;;;10.55;100.00
28683;BME280;15862;43.062;25.626;2022-11-15T06:50:33;100732.47;;;10.61;100.00
28683;BME280;15862;43.062;25.626;2022-11-15T06:53:03;100709.06;;;10.50;100.00
28683;BME280;15862;43.062;25.626;2022-11-15T06:55:29;100723.81;;;10.62;100.00
28683;BME280;15862;43.062;25.626;2022-11-15T06:57:54;100706.31;;;10.53;100.00
28683;BME280;15862;43.062;25.626;2022-11-15T07:00:21;100727.41;;;10.60;100.00
28683;BME280;15862;43.062;25.626;2022-11-15T07:02:47;100714.69;;;10.57;100.00
28683;BME280;15862;43.062;25.626;2022-11-15T07:05:14;100717.44;;;10.67;100.00
28683;BME280;15862;43.062;25.626;2022-11-15T07:07:40;100711.09;;;10.73;100.00
28683;BME280;15862;43.062;25.626;2022-11-15T07:10:07;100703.69;;;10.81;100.00
28683;BME280;15862;43.062;25.626;2022-11-15T07:12:32;100701.47;;;10.89;100.00
28683;BME280;15862;43.062;25.626;2022-11-15T07:14:58;100704.97;;;10.88;100.00
28683;BME280;15862;43.062;25.626;2022-11-15T07:17:23;100707.34;;;10.91;100.00
28683;BME280;15862;43.062;25.626;2022-11-15T07:19:49;100707.47;;;10.89;100.00
28683;BME280;15862;43.062;25.626;2022-11-15T07:22:14;100707.47;;;10.89;100.00
28683;BME280;15862;43.062;25.626;2022-11-15T07:24:40;100688.75;;;10.72;100.00
28683;BME280;15862;43.062;25.626;2022-11-15T07:27:05;100698.31;;;10.84;100.00
28683;BME280;15862;43.062;25.626;2022-11-15T07:29:31;100683.94;;;10.80;100.00
28683;BME280;15862;43.062;25.626;2022-11-15T07:31:56;100696.94;;;10.92;100.00
28683;BME280;15862;43.062;25.626;2022-11-15T07:34:21;100694.63;;;10.88;100.00
28683;BME280;15862;43.062;25.626;2022-11-15T07:36:47;100680.69;;;10.90;100.00
28683;BME280;15862;43.062;25.626;2022-11-15T07:39:12;100694.59;;;11.02;100.00
28683;BME280;15862;43.062;25.626;2022-11-15T07:41:39;100691.28;;;11.00;100.00
28683;BME280;15862;43.062;25.626;2022-11-15T07:44:05;100689.78;;;11.10;100.00
28683;BME280;15862;43.062;25.626;2022-11-15T07:46:31;100689.22;;;11.05;100.00
28683;BME280;15862;43.062;25.626;2022-11-15T07:48:56;100690.84;;;11.20;100.00
28683;BME280;15862;43.062;25.626;2022-11-15T07:51:22;100688.91;;;11.23;100.00
28683;BME280;15862;43.062;25.626;2022-11-15T07:53:47;100680.66;;;11.31;100.00
28683;BME280;15862;43.062;25.626;2022-11-15T07:56:13;100684.13;;;11.43;100.00
28683;BME280;15862;43.062;25.626;2022-11-15T07:58:39;100683.94;;;11.46;100.00
28683;BME280;15862;43.062;25.626;2022-11-15T08:01:09;100676.16;;;11.46;100.00
28683;BME280;15862;43.062;25.626;2022-11-15T08:03:35;100681.50;;;11.57;100.00
28683;BME280;15862;43.062;25.626;2022-11-15T08:06:01;100661.34;;;11.48;100.00
28683;BME280;15862;43.062;25.626;2022-11-15T08:08:27;100666.13;;;11.42;100.00
28683;BME280;15862;43.062;25.626;2022-11-15T08:10:52;100669.41;;;11.58;100.00
28683;BME280;15862;43.062;25.626;2022-11-15T08:13:18;100665.78;;;11.60;100.00
28683;BME280;15862;43.062;25.626;2022-11-15T08:15:43;100653.47;;;11.64;100.00
28683;BME280;15862;43.062;25.626;2022-11-15T08:18:11;100664.22;;;11.70;100.00
28683;BME280;15862;43.062;25.626;2022-11-15T08:20:37;100660.72;;;11.71;100.00
28683;BME280;15862;43.062;25.626;2022-11-15T08:23:04;100654.91;;;11.68;100.00
28683;BME280;15862;43.062;25.626;2022-11-15T08:25:31;100652.31;;;11.68;100.00
28683;BME280;15862;43.062;25.626;2022-11-15T08:27:59;100655.22;;;11.63;100.00
28683;BME280;15862;43.062;25.626;2022-11-15T08:30:25;100653.75;;;11.59;100.00
28683;BME280;15862;43.062;25.626;2022-11-15T08:32:52;100635.06;;;11.42;100.00
28683;BME280;15862;43.062;25.626;2022-11-15T08:35:18;100652.50;;;11.52;100.00
28683;BME280;15862;43.062;25.626;2022-11-15T08:37:45;100642.16;;;11.52;100.00
28683;BME280;15862;43.062;25.626;2022-11-15T08:40:10;100640.09;;;11.57;100.00
28683;BME280;15862;43.062;25.626;2022-11-15T08:42:36;100636.91;;;11.66;100.00
28683;BME280;15862;43.062;25.626;2022-11-15T08:45:03;100630.69;;;11.69;100.00
28683;BME280;15862;43.062;25.626;2022-11-15T08:47:29;100633.28;;;11.81;100.00
28683;BME280;15862;43.062;25.626;2022-11-15T08:49:54;100627.69;;;11.87;100.00
28683;BME280;15862;43.062;25.626;2022-11-15T08:52:20;100621.09;;;11.83;100.00
28683;BME280;15862;43.062;25.626;2022-11-15T08:54:46;100618.38;;;11.85;100.00
28683;BME280;15862;43.062;25.626;2022-11-15T08:57:12;100621.28;;;11.93;100.00
28683;BME280;15862;43.062;25.626;2022-11-15T08:59:37;100612.59;;;11.81;100.00
28683;BME280;15862;43.062;25.626;2022-11-15T09:02:03;100611.88;;;12.04;100.00
28683;BME280;15862;43.062;25.626;2022-11-15T09:04:29;100605.72;;;12.18;100.00
28683;BME280;15862;43.062;25.626;2022-11-15T09:06:55;100598.66;;;12.32;100.00
28683;BME280;15862;43.062;25.626;2022-11-15T09:09:21;100593.19;;;12.24;100.00
28683;BME280;15862;43.062;25.626;2022-11-15T09:11:46;100591.47;;;12.12;100.00
28683;BME280;15862;43.062;25.626;2022-11-15T09:14:13;100585.84;;;12.18;100.00
28683;BME280;15862;43.062;25.626;2022-11-15T09:16:38;100589.66;;;12.25;100.00
28683;BME280;15862;43.062;25.626;2022-11-15T09:19:04;100589.56;;;12.26;100.00
28683;BME280;15862;43.062;25.626;2022-11-15T09:21:30;100588.16;;;12.46;100.00
28683;BME280;15862;43.062;25.626;2022-11-15T09:23:55;100575.78;;;12.62;100.00
28683;BME280;15862;43.062;25.626;2022-11-15T09:26:21;100566.63;;;12.69;100.00
28683;BME280;15862;43.062;25.626;2022-11-15T09:28:46;100567.38;;;12.71;100.00
28683;BME280;15862;43.062;25.626;2022-11-15T09:31:12;100564.03;;;12.69;100.00
28683;BME280;15862;43.062;25.626;2022-11-15T09:33:37;100561.25;;;12.72;100.00
28683;BME280;15862;43.062;25.626;2022-11-15T09:36:07;100552.75;;;12.93;100.00
28683;BME280;15862;43.062;25.626;2022-11-15T09:38:33;100551.59;;;13.31;100.00
28683;BME280;15862;43.062;25.626;2022-11-15T09:41:23;100544.06;;;13.39;100.00
28683;BME280;15862;43.062;25.626;2022-11-15T09:49:14;100532.78;;;13.51;100.00
28683;BME280;15862;43.062;25.626;2022-11-15T09:51:43;100504.59;;;13.69;100.00
28683;BME280;15862;43.062;25.626;2022-11-15T09:54:34;100521.59;;;13.94;100.00
28683;BME280;15862;43.062;25.626;2022-11-15T09:57:09;100516.50;;;14.04;100.00
28683;BME280;15862;43.062;25.626;2022-11-15T09:59:39;100513.56;;;13.75;100.00
28683;BME280;15862;43.062;25.626;2022-11-15T10:04:59;100500.31;;;13.57;100.00
28683;BME280;15862;43.062;25.626;2022-11-15T10:07:31;100504.31;;;13.39;100.00
28683;BME280;15862;43.062;25.626;2022-11-15T10:10:22;100502.28;;;13.31;100.00
28683;BME280;15862;43.062;25.626;2022-11-15T10:12:48;100499.97;;;13.05;100.00
28683;BME280;15862;43.062;25.626;2022-11-15T10:15:16;100466.84;;;12.98;100.00
28683;BME280;15862;43.062;25.626;2022-11-15T10:20:27;100488.41;;;12.98;100.00
28683;BME280;15862;43.062;25.626;2022-11-15T10:23:01;100487.97;;;12.81;100.00
28683;BME280;15862;43.062;25.626;2022-11-15T10:25:29;100480.97;;;12.94;100.00
28683;BME280;15862;43.062;25.626;2022-11-15T10:30:20;100473.34;;;12.80;100.00
28683;BME280;15862;43.062;25.626;2022-11-15T10:32:47;100476.38;;;12.74;100.00
28683;BME280;15862;43.062;25.626;2022-11-15T10:35:39;100480.47;;;12.89;100.00
28683;BME280;15862;43.062;25.626;2022-11-15T10:38:06;100477.44;;;12.71;100.00
28683;BME280;15862;43.062;25.626;2022-11-15T10:40:32;100469.13;;;12.55;100.00
28683;BME280;15862;43.062;25.626;2022-11-15T10:43:17;100463.56;;;12.49;100.00
28683;BME280;15862;43.062;25.626;2022-11-15T10:45:44;100460.63;;;12.30;100.00
28683;BME280;15862;43.062;25.626;2022-11-15T10:50:41;100463.63;;;12.13;100.00
28683;BME280;15862;43.062;25.626;2022-11-15T10:53:43;100463.00;;;12.10;100.00
28683;BME280;15862;43.062;25.626;2022-11-15T10:56:12;100453.66;;;12.07;100.00
28683;BME280;15862;43.062;25.626;2022-11-15T10:58:51;100443.59;;;12.15;100.00
28683;BME280;15862;43.062;25.626;2022-11-15T11:01:19;100444.31;;;12.17;100.00
28683;BME280;15862;43.062;25.626;2022-11-15T11:04:04;100442.44;;;12.19;100.00
28683;BME280;15862;43.062;25.626;2022-11-15T11:06:31;100441.41;;;12.21;100.00
28683;BME280;15862;43.062;25.626;2022-11-15T11:11:51;100446.75;;;12.08;100.00
28683;BME280;15862;43.062;25.626;2022-11-15T11:14:28;100435.66;;;12.06;100.00
28683;BME280;15862;43.062;25.626;2022-11-15T11:22:01;100440.22;;;12.02;100.00
28683;BME280;15862;43.062;25.626;2022-11-15T11:24:43;100429.09;;;12.13;100.00
28683;BME280;15862;43.062;25.626;2022-11-15T11:30:11;100423.91;;;12.36;100.00
28683;BME280;15862;43.062;25.626;2022-11-15T11:35:29;100417.16;;;12.22;100.00
28683;BME280;15862;43.062;25.626;2022-11-15T11:40:41;100404.63;;;12.40;100.00
28683;BME280;15862;43.062;25.626;2022-11-15T11:49:15;100394.94;;;12.31;100.00
28683;BME280;15862;43.062;25.626;2022-11-15T11:51:47;100398.97;;;12.35;100.00
28683;BME280;15862;43.062;25.626;2022-11-15T11:57:47;100394.50;;;12.14;100.00
28683;BME280;15862;43.062;25.626;2022-11-15T12:00:18;100386.78;;;12.01;100.00
28683;BME280;15862;43.062;25.626;2022-11-15T12:07:49;100358.63;;;11.73;100.00
28683;BME280;15862;43.062;25.626;2022-11-15T12:10:22;100365.00;;;12.04;100.00
28683;BME280;15862;43.062;25.626;2022-11-15T12:13:01;100370.91;;;12.06;100.00
28683;BME280;15862;43.062;25.626;2022-11-15T12:15:33;100375.88;;;12.32;100.00
28683;BME280;15862;43.062;25.626;2022-11-15T12:18:02;100361.38;;;12.29;100.00
28683;BME280;15862;43.062;25.626;2022-11-15T12:20:32;100362.03;;;12.20;100.00
28683;BME280;15862;43.062;25.626;2022-11-15T12:23:23;100363.41;;;12.14;100.00
28683;BME280;15862;43.062;25.626;2022-11-15T12:26:02;100342.81;;;12.12;100.00
28683;BME280;15862;43.062;25.626;2022-11-15T12:28:46;100356.47;;;12.14;100.00
28683;BME280;15862;43.062;25.626;2022-11-15T12:31:23;100354.31;;;12.08;100.00
28683;BME280;15862;43.062;25.626;2022-11-15T12:33:55;100346.56;;;12.08;100.00
28683;BME280;15862;43.062;25.626;2022-11-15T12:39:13;100351.28;;;12.14;100.00
28683;BME280;15862;43.062;25.626;2022-11-15T12:45:23;100344.28;;;12.27;100.00
28683;BME280;15862;43.062;25.626;2022-11-15T12:47:29;100318.59;;;12.13;100.00
28683;BME280;15862;43.062;25.626;2022-11-15T12:49:54;100340.13;;;12.14;100.00
28683;BME280;15862;43.062;25.626;2022-11-15T12:52:19;100323.75;;;12.13;100.00
28683;BME280;15862;43.062;25.626;2022-11-15T12:54:53;100333.44;;;12.22;100.00
28683;BME280;15862;43.062;25.626;2022-11-15T12:59:52;100329.31;;;12.19;100.00
28683;BME280;15862;43.062;25.626;2022-11-15T13:02:42;100337.19;;;12.18;100.00
28683;BME280;15862;43.062;25.626;2022-11-15T13:22:48;100301.19;;;11.68;100.00
28683;BME280;15862;43.062;25.626;2022-11-15T13:27:48;100306.91;;;11.48;100.00
28683;BME280;15862;43.062;25.626;2022-11-15T13:30:26;100303.94;;;11.54;100.00
28683;BME280;15862;43.062;25.626;2022-11-15T13:32:53;100296.22;;;11.30;100.00
28683;BME280;15862;43.062;25.626;2022-11-15T13:35:22;100301.03;;;11.46;100.00
28683;BME280;15862;43.062;25.626;2022-11-15T13:37:49;100297.28;;;11.50;100.00
28683;BME280;15862;43.062;25.626;2022-11-15T13:40:28;100293.47;;;11.43;100.00
28683;BME280;15862;43.062;25.626;2022-11-15T13:42:57;100293.78;;;11.51;100.00
28683;BME280;15862;43.062;25.626;2022-11-15T13:45:23;100288.41;;;11.42;100.00
28683;BME280;15862;43.062;25.626;2022-11-15T13:47:55;100287.16;;;11.47;100.00
28683;BME280;15862;43.062;25.626;2022-11-15T13:50:27;100280.09;;;11.49;100.00
28683;BME280;15862;43.062;25.626;2022-11-15T13:52:58;100282.50;;;11.52;100.00
28683;BME280;15862;43.062;25.626;2022-11-15T13:55:26;100259.22;;;11.40;100.00
28683;BME280;15862;43.062;25.626;2022-11-15T13:57:56;100271.22;;;11.53;100.00
28683;BME280;15862;43.062;25.626;2022-11-15T14:02:55;100264.28;;;11.41;100.00
28683;BME280;15862;43.062;25.626;2022-11-15T14:05:23;100255.31;;;11.35;100.00
28683;BME280;15862;43.062;25.626;2022-11-15T14:08:02;100264.72;;;11.36;100.00
28683;BME280;15862;43.062;25.626;2022-11-15T14:10:31;100263.34;;;11.42;100.00
28683;BME280;15862;43.062;25.626;2022-11-15T14:12:57;100247.69;;;11.33;100.00
28683;BME280;15862;43.062;25.626;2022-11-15T14:15:34;100260.09;;;11.41;100.00
28683;BME280;15862;43.062;25.626;2022-11-15T14:18:00;100258.03;;;11.33;100.00
28683;BME280;15862;43.062;25.626;2022-11-15T14:23:01;100251.22;;;11.20;100.00
28683;BME280;15862;43.062;25.626;2022-11-15T14:25:29;100254.34;;;11.25;100.00
28683;BME280;15862;43.062;25.626;2022-11-15T14:30:36;100253.13;;;11.18;100.00
28683;BME280;15862;43.062;25.626;2022-11-15T14:33:01;100247.94;;;11.18;100.00
28683;BME280;15862;43.062;25.626;2022-11-15T14:35:28;100235.97;;;11.04;100.00
28683;BME280;15862;43.062;25.626;2022-11-15T14:37:53;100232.72;;;10.90;100.00
28683;BME280;15862;43.062;25.626;2022-11-15T14:40:21;100246.88;;;10.97;100.00